sensor_id;sensor_type;location;lat;lon;timestamp;temperature;humidity
72712;SHT30;60828;40.292;17.998;2022-11-15T00:00:15;14.72;89.53
72712;SHT30;60828;40.292;17.998;2022-11-15T00:02:41;14.73;89.61
72712;SHT30;60828;40.292;17.998;2022-11-15T00:05:07;14.72;89.67
72712;SHT30;60828;40.292;17.998;2022-11-15T00:07:32;14.85;89.42
72712;SHT30;60828;40.292;17.998;2022-11-15T00:09:58;14.79;89.27
72712;SHT30;60828;40.292;17.998;2022-11-15T00:12:23;14.73;89.31
72712;SHT30;60828;40.292;17.998;2022-11-15T00:14:49;14.69;89.35
72712;SHT30;60828;40.292;17.998;2022-11-15T00:17:14;14.72;89.48
72712;SHT30;60828;40.292;17.998;2022-11-15T00:19:40;14.67;89.46
72712;SHT30;60828;40.292;17.998;2022-11-15T00:22:05;14.62;89.41
72712;SHT30;60828;40.292;17.998;2022-11-15T00:24:30;14.72;89.46
72712;SHT30;60828;40.292;17.998;2022-11-15T00:26:56;14.64;89.26
72712;SHT30;60828;40.292;17.998;2022-11-15T00:29:21;14.60;89.11
72712;SHT30;60828;40.292;17.998;2022-11-15T00:31:47;14.58;89.01
72712;SHT30;60828;40.292;17.998;2022-11-15T00:34:13;14.54;88.93
72712;SHT30;60828;40.292;17.998;2022-11-15T00:36:38;14.41;88.83
72712;SHT30;60828;40.292;17.998;2022-11-15T00:39:04;14.35;88.89
72712;SHT30;60828;40.292;17.998;2022-11-15T00:41:33;14.28;88.94
72712;SHT30;60828;40.292;17.998;2022-11-15T00:43:58;14.23;88.96
72712;SHT30;60828;40.292;17.998;2022-11-15T00:46:24;14.16;89.00
72712;SHT30;60828;40.292;17.998;2022-11-15T00:48:49;14.13;89.18
72712;SHT30;60828;40.292;17.998;2022-11-15T00:51:15;14.13;89.22
72712;SHT30;60828;40.292;17.998;2022-11-15T00:53:40;14.09;89.12
72712;SHT30;60828;40.292;17.998;2022-11-15T00:56:06;14.06;89.22
72712;SHT30;60828;40.292;17.998;2022-11-15T00:58:31;14.07;89.27
72712;SHT30;60828;40.292;17.998;2022-11-15T01:01:08;14.06;89.29
72712;SHT30;60828;40.292;17.998;2022-11-15T01:03:35;14.06;89.28
72712;SHT30;60828;40.292;17.998;2022-11-15T01:06:00;13.99;89.36
72712;SHT30;60828;40.292;17.998;2022-11-15T01:08:26;13.99;89.49
72712;SHT30;60828;40.292;17.998;2022-11-15T01:10:51;14.04;89.61
72712;SHT30;60828;40.292;17.998;2022-11-15T01:13:17;14.12;89.62
72712;SHT30;60828;40.292;17.998;2022-11-15T01:15:42;14.12;89.73
72712;SHT30;60828;40.292;17.998;2022-11-15T01:18:08;14.13;89.74
72712;SHT30;60828;40.292;17.998;2022-11-15T01:20:34;14.18;89.77
72712;SHT30;60828;40.292;17.998;2022-11-15T01:22:59;14.16;89.70
72712;SHT30;60828;40.292;17.998;2022-11-15T01:25:25;14.10;89.72
72712;SHT30;60828;40.292;17.998;2022-11-15T01:27:50;14.09;89.74
72712;SHT30;60828;40.292;17.998;2022-11-15T01:30:16;14.02;89.71
72712;SHT30;60828;40.292;17.998;2022-11-15T01:32:41;14.02;89.75
72712;SHT30;60828;40.292;17.998;2022-11-15T01:35:07;13.96;89.75
72712;SHT30;60828;40.292;17.998;2022-11-15T01:37:33;13.95;89.75
72712;SHT30;60828;40.292;17.998;2022-11-15T01:39:58;13.89;89.77
72712;SHT30;60828;40.292;17.998;2022-11-15T01:42:24;13.89;89.85
72712;SHT30;60828;40.292;17.998;2022-11-15T01:44:50;13.87;89.88
72712;SHT30;60828;40.292;17.998;2022-11-15T01:47:29;13.87;89.82
72712;SHT30;60828;40.292;17.998;2022-11-15T01:49:55;13.86;89.85
72712;SHT30;60828;40.292;17.998;2022-11-15T01:52:24;13.86;89.97
72712;SHT30;60828;40.292;17.998;2022-11-15T01:55:00;13.79;89.93
72712;SHT30;60828;40.292;17.998;2022-11-15T01:57:27;13.72;90.06
72712;SHT30;60828;40.292;17.998;2022-11-15T01:59:52;13.73;90.17
72712;SHT30;60828;40.292;17.998;2022-11-15T02:02:19;13.76;90.20
72712;SHT30;60828;40.292;17.998;2022-11-15T02:04:46;13.73;90.17
72712;SHT30;60828;40.292;17.998;2022-11-15T02:07:15;13.69;90.22
72712;SHT30;60828;40.292;17.998;2022-11-15T02:09:42;13.69;90.25
72712;SHT30;60828;40.292;17.998;2022-11-15T02:12:09;13.73;90.33
72712;SHT30;60828;40.292;17.998;2022-11-15T02:14:38;13.77;90.36
72712;SHT30;60828;40.292;17.998;2022-11-15T02:42:04;13.76;89.88
72712;SHT30;60828;40.292;17.998;2022-11-15T02:44:53;13.77;89.70
72712;SHT30;60828;40.292;17.998;2022-11-15T02:47:21;13.68;89.62
72712;SHT30;60828;40.292;17.998;2022-11-15T02:49:50;13.69;89.76
72712;SHT30;60828;40.292;17.998;2022-11-15T02:52:18;13.70;89.92
72712;SHT30;60828;40.292;17.998;2022-11-15T02:55:04;13.72;89.89
72712;SHT30;60828;40.292;17.998;2022-11-15T02:57:45;13.69;89.76
72712;SHT30;60828;40.292;17.998;2022-11-15T03:00:18;13.72;89.69
72712;SHT30;60828;40.292;17.998;2022-11-15T03:05:45;13.66;89.68
72712;SHT30;60828;40.292;17.998;2022-11-15T03:11:24;13.51;89.80
72712;SHT30;60828;40.292;17.998;2022-11-15T03:13:57;13.48;89.81
72712;SHT30;60828;40.292;17.998;2022-11-15T03:19:08;13.62;90.01
72712;SHT30;60828;40.292;17.998;2022-11-15T03:21:37;13.62;90.10
72712;SHT30;60828;40.292;17.998;2022-11-15T03:24:06;13.69;90.18
72712;SHT30;60828;40.292;17.998;2022-11-15T03:26:34;13.65;90.13
72712;SHT30;60828;40.292;17.998;2022-11-15T03:29:04;13.73;90.02
72712;SHT30;60828;40.292;17.998;2022-11-15T03:31:35;13.63;89.84
72712;SHT30;60828;40.292;17.998;2022-11-15T03:34:25;13.55;90.01
72712;SHT30;60828;40.292;17.998;2022-11-15T03:36:52;13.59;90.01
72712;SHT30;60828;40.292;17.998;2022-11-15T03:39:19;13.51;90.15
72712;SHT30;60828;40.292;17.998;2022-11-15T03:47:23;13.38;90.41
72712;SHT30;60828;40.292;17.998;2022-11-15T03:49:52;13.38;90.13
72712;SHT30;60828;40.292;17.998;2022-11-15T03:52:20;13.41;90.00
72712;SHT30;60828;40.292;17.998;2022-11-15T03:54:51;13.37;89.91
72712;SHT30;60828;40.292;17.998;2022-11-15T03:57:17;13.32;90.04
72712;SHT30;60828;40.292;17.998;2022-11-15T03:59:43;13.35;90.00
72712;SHT30;60828;40.292;17.998;2022-11-15T04:02:08;13.32;89.68
72712;SHT30;60828;40.292;17.998;2022-11-15T04:04:34;13.30;89.59
72712;SHT30;60828;40.292;17.998;2022-11-15T04:06:59;13.24;89.65
72712;SHT30;60828;40.292;17.998;2022-11-15T04:09:25;13.31;89.53
72712;SHT30;60828;40.292;17.998;2022-11-15T04:11:50;13.20;89.55
72712;SHT30;60828;40.292;17.998;2022-11-15T04:14:16;13.21;89.73
72712;SHT30;60828;40.292;17.998;2022-11-15T04:16:41;13.18;89.70
72712;SHT30;60828;40.292;17.998;2022-11-15T04:19:07;13.20;89.79
72712;SHT30;60828;40.292;17.998;2022-11-15T04:21:51;13.17;89.89
72712;SHT30;60828;40.292;17.998;2022-11-15T04:24:35;13.12;89.90
72712;SHT30;60828;40.292;17.998;2022-11-15T04:27:00;13.12;89.90
72712;SHT30;60828;40.292;17.998;2022-11-15T04:29:26;13.15;89.83
72712;SHT30;60828;40.292;17.998;2022-11-15T04:32:05;13.08;89.70
72712;SHT30;60828;40.292;17.998;2022-11-15T04:34:31;13.10;89.86
72712;SHT30;60828;40.292;17.998;2022-11-15T04:36:57;13.08;89.88
72712;SHT30;60828;40.292;17.998;2022-11-15T04:39:39;13.11;89.76
72712;SHT30;60828;40.292;17.998;2022-11-15T04:42:05;13.08;89.77
72712;SHT30;60828;40.292;17.998;2022-11-15T04:44:30;12.99;89.74
72712;SHT30;60828;40.292;17.998;2022-11-15T04:46:56;12.93;89.76
72712;SHT30;60828;40.292;17.998;2022-11-15T04:49:21;12.89;89.85
72712;SHT30;60828;40.292;17.998;2022-11-15T04:51:47;12.90;89.93
72712;SHT30;60828;40.292;17.998;2022-11-15T04:54:12;12.89;89.99
72712;SHT30;60828;40.292;17.998;2022-11-15T04:56:38;12.90;90.08
72712;SHT30;60828;40.292;17.998;2022-11-15T04:59:03;12.90;90.15
72712;SHT30;60828;40.292;17.998;2022-11-15T05:01:29;12.99;90.14
72712;SHT30;60828;40.292;17.998;2022-11-15T05:03:54;13.01;90.05
72712;SHT30;60828;40.292;17.998;2022-11-15T05:06:38;13.07;89.81
72712;SHT30;60828;40.292;17.998;2022-11-15T05:09:04;13.08;89.70
72712;SHT30;60828;40.292;17.998;2022-11-15T05:11:30;12.97;89.61
72712;SHT30;60828;40.292;17.998;2022-11-15T05:13:55;12.99;89.66
72712;SHT30;60828;40.292;17.998;2022-11-15T05:16:21;12.99;89.79
72712;SHT30;60828;40.292;17.998;2022-11-15T05:18:48;12.96;89.72
72712;SHT30;60828;40.292;17.998;2022-11-15T05:21:15;12.94;89.71
72712;SHT30;60828;40.292;17.998;2022-11-15T05:23:41;13.01;89.56
72712;SHT30;60828;40.292;17.998;2022-11-15T05:26:08;12.92;89.43
72712;SHT30;60828;40.292;17.998;2022-11-15T05:28:34;12.94;89.13
72712;SHT30;60828;40.292;17.998;2022-11-15T05:31:10;12.92;89.27
72712;SHT30;60828;40.292;17.998;2022-11-15T05:33:38;12.94;89.09
72712;SHT30;60828;40.292;17.998;2022-11-15T05:38:45;12.90;88.69
72712;SHT30;60828;40.292;17.998;2022-11-15T05:41:12;12.99;88.66
72712;SHT30;60828;40.292;17.998;2022-11-15T05:43:39;13.00;88.60
72712;SHT30;60828;40.292;17.998;2022-11-15T05:46:05;13.12;88.39
72712;SHT30;60828;40.292;17.998;2022-11-15T05:48:32;13.01;88.23
72712;SHT30;60828;40.292;17.998;2022-11-15T05:50:59;13.15;88.19
72712;SHT30;60828;40.292;17.998;2022-11-15T05:53:25;13.30;87.66
72712;SHT30;60828;40.292;17.998;2022-11-15T05:55:51;13.45;87.21
72712;SHT30;60828;40.292;17.998;2022-11-15T05:58:18;13.42;86.67
72712;SHT30;60828;40.292;17.998;2022-11-15T06:00:44;13.54;86.40
72712;SHT30;60828;40.292;17.998;2022-11-15T06:03:10;13.76;86.19
72712;SHT30;60828;40.292;17.998;2022-11-15T06:05:35;13.79;85.87
72712;SHT30;60828;40.292;17.998;2022-11-15T06:08:01;13.89;85.76
72712;SHT30;60828;40.292;17.998;2022-11-15T06:10:26;14.21;85.73
72712;SHT30;60828;40.292;17.998;2022-11-15T06:13:02;15.26;84.87
72712;SHT30;60828;40.292;17.998;2022-11-15T06:15:28;17.04;81.26
72712;SHT30;60828;40.292;17.998;2022-11-15T06:17:56;18.40;77.37
72712;SHT30;60828;40.292;17.998;2022-11-15T06:20:28;19.89;73.24
72712;SHT30;60828;40.292;17.998;2022-11-15T06:22:58;20.86;66.44
72712;SHT30;60828;40.292;17.998;2022-11-15T06:25:24;22.14;66.29
72712;SHT30;60828;40.292;17.998;2022-11-15T06:27:57;22.99;60.20
72712;SHT30;60828;40.292;17.998;2022-11-15T06:30:24;22.48;60.15
72712;SHT30;60828;40.292;17.998;2022-11-15T06:32:50;21.08;63.63
72712;SHT30;60828;40.292;17.998;2022-11-15T06:35:16;19.84;66.81
72712;SHT30;60828;40.292;17.998;2022-11-15T06:37:42;19.21;69.55
72712;SHT30;60828;40.292;17.998;2022-11-15T06:40:08;18.71;71.44
72712;SHT30;60828;40.292;17.998;2022-11-15T06:42:34;18.40;72.50
72712;SHT30;60828;40.292;17.998;2022-11-15T06:44:59;18.43;72.77
72712;SHT30;60828;40.292;17.998;2022-11-15T06:47:25;19.74;71.20
72712;SHT30;60828;40.292;17.998;2022-11-15T06:49:50;21.99;65.66
72712;SHT30;60828;40.292;17.998;2022-11-15T06:52:16;23.40;59.89
72712;SHT30;60828;40.292;17.998;2022-11-15T06:54:43;24.59;57.15
72712;SHT30;60828;40.292;17.998;2022-11-15T06:57:09;26.08;54.59
72712;SHT30;60828;40.292;17.998;2022-11-15T06:59:35;26.38;52.35
72712;SHT30;60828;40.292;17.998;2022-11-15T07:02:01;27.10;52.63
72712;SHT30;60828;40.292;17.998;2022-11-15T07:04:26;27.03;52.34
72712;SHT30;60828;40.292;17.998;2022-11-15T07:06:51;27.07;52.46
72712;SHT30;60828;40.292;17.998;2022-11-15T07:09:17;27.00;52.96
72712;SHT30;60828;40.292;17.998;2022-11-15T07:11:42;26.71;53.06
72712;SHT30;60828;40.292;17.998;2022-11-15T07:14:08;25.43;55.88
72712;SHT30;60828;40.292;17.998;2022-11-15T07:16:33;24.94;57.71
72712;SHT30;60828;40.292;17.998;2022-11-15T07:18:59;24.46;58.52
72712;SHT30;60828;40.292;17.998;2022-11-15T07:21:24;24.50;58.91
72712;SHT30;60828;40.292;17.998;2022-11-15T07:23:50;24.64;58.27
72712;SHT30;60828;40.292;17.998;2022-11-15T07:26:16;24.66;58.05
72712;SHT30;60828;40.292;17.998;2022-11-15T07:28:41;25.08;56.69
72712;SHT30;60828;40.292;17.998;2022-11-15T07:31:08;26.59;54.41
72712;SHT30;60828;40.292;17.998;2022-11-15T07:33:34;27.54;52.40
72712;SHT30;60828;40.292;17.998;2022-11-15T07:36:05;28.54;50.50
72712;SHT30;60828;40.292;17.998;2022-11-15T07:38:32;28.20;50.03
72712;SHT30;60828;40.292;17.998;2022-11-15T07:41:09;27.54;51.52
72712;SHT30;60828;40.292;17.998;2022-11-15T07:43:35;26.55;53.33
72712;SHT30;60828;40.292;17.998;2022-11-15T07:46:06;26.60;54.12
72712;SHT30;60828;40.292;17.998;2022-11-15T07:48:37;26.65;53.34
72712;SHT30;60828;40.292;17.998;2022-11-15T07:51:05;26.89;52.90
72712;SHT30;60828;40.292;17.998;2022-11-15T07:53:30;26.90;52.39
72712;SHT30;60828;40.292;17.998;2022-11-15T07:55:56;25.81;55.12
72712;SHT30;60828;40.292;17.998;2022-11-15T07:58:21;25.14;57.75
72712;SHT30;60828;40.292;17.998;2022-11-15T08:00:47;24.94;58.58
72712;SHT30;60828;40.292;17.998;2022-11-15T08:03:16;24.35;59.87
72712;SHT30;60828;40.292;17.998;2022-11-15T08:05:43;24.35;59.68
72712;SHT30;60828;40.292;17.998;2022-11-15T08:08:10;24.77;58.57
72712;SHT30;60828;40.292;17.998;2022-11-15T08:10:36;24.78;58.60
72712;SHT30;60828;40.292;17.998;2022-11-15T08:13:07;24.64;60.21
72712;SHT30;60828;40.292;17.998;2022-11-15T08:15:34;25.39;57.32
72712;SHT30;60828;40.292;17.998;2022-11-15T08:18:02;28.00;52.57
72712;SHT30;60828;40.292;17.998;2022-11-15T08:20:28;29.88;47.83
72712;SHT30;60828;40.292;17.998;2022-11-15T08:22:58;31.04;45.80
72712;SHT30;60828;40.292;17.998;2022-11-15T08:25:26;31.32;43.70
72712;SHT30;60828;40.292;17.998;2022-11-15T08:27:53;31.07;45.04
72712;SHT30;60828;40.292;17.998;2022-11-15T08:30:18;30.39;46.19
72712;SHT30;60828;40.292;17.998;2022-11-15T08:32:44;30.60;46.94
72712;SHT30;60828;40.292;17.998;2022-11-15T08:35:09;31.29;45.33
72712;SHT30;60828;40.292;17.998;2022-11-15T08:37:35;32.18;44.23
72712;SHT30;60828;40.292;17.998;2022-11-15T08:40:01;32.96;42.77
72712;SHT30;60828;40.292;17.998;2022-11-15T08:42:26;33.71;41.22
72712;SHT30;60828;40.292;17.998;2022-11-15T08:44:52;33.99;40.40
72712;SHT30;60828;40.292;17.998;2022-11-15T08:47:17;34.61;40.28
72712;SHT30;60828;40.292;17.998;2022-11-15T08:49:43;34.95;39.10
72712;SHT30;60828;40.292;17.998;2022-11-15T08:52:08;34.33;39.53
72712;SHT30;60828;40.292;17.998;2022-11-15T08:54:34;33.30;40.89
72712;SHT30;60828;40.292;17.998;2022-11-15T08:57:00;33.68;40.86
72712;SHT30;60828;40.292;17.998;2022-11-15T08:59:25;32.87;42.02
72712;SHT30;60828;40.292;17.998;2022-11-15T09:01:51;33.06;42.07
72712;SHT30;60828;40.292;17.998;2022-11-15T09:04:16;33.02;41.60
72712;SHT30;60828;40.292;17.998;2022-11-15T09:06:42;32.52;42.57
72712;SHT30;60828;40.292;17.998;2022-11-15T09:09:07;32.37;43.00
72712;SHT30;60828;40.292;17.998;2022-11-15T09:11:33;31.45;43.81
72712;SHT30;60828;40.292;17.998;2022-11-15T09:13:58;30.13;47.13
72712;SHT30;60828;40.292;17.998;2022-11-15T09:16:24;29.47;48.39
72712;SHT30;60828;40.292;17.998;2022-11-15T09:18:49;29.63;48.62
72712;SHT30;60828;40.292;17.998;2022-11-15T09:21:15;30.18;48.73
72712;SHT30;60828;40.292;17.998;2022-11-15T09:23:40;29.26;48.53
72712;SHT30;60828;40.292;17.998;2022-11-15T09:26:06;26.76;52.95
72712;SHT30;60828;40.292;17.998;2022-11-15T09:28:32;25.66;57.22
72712;SHT30;60828;40.292;17.998;2022-11-15T09:31:03;24.74;59.90
72712;SHT30;60828;40.292;17.998;2022-11-15T09:33:29;24.26;61.54
72712;SHT30;60828;40.292;17.998;2022-11-15T09:36:07;23.91;62.06
72712;SHT30;60828;40.292;17.998;2022-11-15T09:38:34;23.64;62.33
72712;SHT30;60828;40.292;17.998;2022-11-15T09:43:59;22.55;65.08
72712;SHT30;60828;40.292;17.998;2022-11-15T09:49:14;22.51;66.33
72712;SHT30;60828;40.292;17.998;2022-11-15T09:51:43;22.73;66.53
72712;SHT30;60828;40.292;17.998;2022-11-15T09:54:35;22.92;64.56
72712;SHT30;60828;40.292;17.998;2022-11-15T09:57:14;23.13;64.66
72712;SHT30;60828;40.292;17.998;2022-11-15T10:00:18;23.03;64.20
72712;SHT30;60828;40.292;17.998;2022-11-15T10:03:00;22.68;64.21
72712;SHT30;60828;40.292;17.998;2022-11-15T10:05:29;22.29;64.65
72712;SHT30;60828;40.292;17.998;2022-11-15T10:08:21;22.44;64.52
72712;SHT30;60828;40.292;17.998;2022-11-15T10:10:51;22.87;64.62
72712;SHT30;60828;40.292;17.998;2022-11-15T10:13:23;22.99;64.77
72712;SHT30;60828;40.292;17.998;2022-11-15T10:15:51;22.92;65.36
72712;SHT30;60828;40.292;17.998;2022-11-15T10:18:35;22.82;64.33
72712;SHT30;60828;40.292;17.998;2022-11-15T10:22:14;22.61;65.53
72712;SHT30;60828;40.292;17.998;2022-11-15T10:24:27;22.48;65.75
72712;SHT30;60828;40.292;17.998;2022-11-15T10:26:55;22.62;64.82
72712;SHT30;60828;40.292;17.998;2022-11-15T10:29:22;22.24;65.87
72712;SHT30;60828;40.292;17.998;2022-11-15T10:31:48;22.07;65.93
72712;SHT30;60828;40.292;17.998;2022-11-15T10:34:20;22.20;65.99
72712;SHT30;60828;40.292;17.998;2022-11-15T10:36:53;22.30;65.01
72712;SHT30;60828;40.292;17.998;2022-11-15T10:39:19;22.65;65.01
72712;SHT30;60828;40.292;17.998;2022-11-15T10:41:44;22.73;63.95
72712;SHT30;60828;40.292;17.998;2022-11-15T10:44:30;22.55;63.43
72712;SHT30;60828;40.292;17.998;2022-11-15T10:49:24;22.16;64.45
72712;SHT30;60828;40.292;17.998;2022-11-15T10:54:33;21.57;65.19
72712;SHT30;60828;40.292;17.998;2022-11-15T10:57:13;21.82;64.76
72712;SHT30;60828;40.292;17.998;2022-11-15T10:59:44;21.97;63.74
72712;SHT30;60828;40.292;17.998;2022-11-15T11:05:37;22.13;61.76
72712;SHT30;60828;40.292;17.998;2022-11-15T11:08:17;22.06;59.56
72712;SHT30;60828;40.292;17.998;2022-11-15T11:10:57;21.75;61.04
72712;SHT30;60828;40.292;17.998;2022-11-15T11:18:38;21.38;61.85
72712;SHT30;60828;40.292;17.998;2022-11-15T11:21:13;21.19;61.41
72712;SHT30;60828;40.292;17.998;2022-11-15T11:30:06;20.75;68.26
72712;SHT30;60828;40.292;17.998;2022-11-15T11:35:29;20.62;71.28
72712;SHT30;60828;40.292;17.998;2022-11-15T11:38:03;20.69;71.57
72712;SHT30;60828;40.292;17.998;2022-11-15T11:40:40;20.76;71.82
72712;SHT30;60828;40.292;17.998;2022-11-15T11:43:24;20.76;71.24
72712;SHT30;60828;40.292;17.998;2022-11-15T11:46:03;20.90;71.61
72712;SHT30;60828;40.292;17.998;2022-11-15T11:48:47;21.01;70.71
72712;SHT30;60828;40.292;17.998;2022-11-15T11:51:28;21.11;71.09
72712;SHT30;60828;40.292;17.998;2022-11-15T11:54:11;21.31;70.62
72712;SHT30;60828;40.292;17.998;2022-11-15T11:56:40;21.37;68.98
72712;SHT30;60828;40.292;17.998;2022-11-15T12:01:41;21.23;69.04
72712;SHT30;60828;40.292;17.998;2022-11-15T12:04:18;21.24;68.15
72712;SHT30;60828;40.292;17.998;2022-11-15T12:07:25;21.31;68.42
72712;SHT30;60828;40.292;17.998;2022-11-15T12:12:53;21.55;66.52
72712;SHT30;60828;40.292;17.998;2022-11-15T12:18:18;21.13;66.55
72712;SHT30;60828;40.292;17.998;2022-11-15T12:20:57;21.19;66.47
72712;SHT30;60828;40.292;17.998;2022-11-15T12:23:29;21.23;68.29
72712;SHT30;60828;40.292;17.998;2022-11-15T12:26:09;20.99;66.39
72712;SHT30;60828;40.292;17.998;2022-11-15T12:28:59;21.01;67.13
72712;SHT30;60828;40.292;17.998;2022-11-15T12:31:39;21.31;67.25
72712;SHT30;60828;40.292;17.998;2022-11-15T12:34:34;21.65;65.43
72712;SHT30;60828;40.292;17.998;2022-11-15T12:37:00;21.66;65.59
72712;SHT30;60828;40.292;17.998;2022-11-15T12:47:24;21.32;66.36
72712;SHT30;60828;40.292;17.998;2022-11-15T12:49:50;21.32;66.88
72712;SHT30;60828;40.292;17.998;2022-11-15T12:52:16;21.31;65.38
72712;SHT30;60828;40.292;17.998;2022-11-15T13:02:25;20.94;66.27
72712;SHT30;60828;40.292;17.998;2022-11-15T13:04:54;21.00;66.19
72712;SHT30;60828;40.292;17.998;2022-11-15T13:07:54;21.04;67.00
72712;SHT30;60828;40.292;17.998;2022-11-15T13:10:31;20.84;67.06
72712;SHT30;60828;40.292;17.998;2022-11-15T13:13:10;20.65;67.16
72712;SHT30;60828;40.292;17.998;2022-11-15T13:15:54;20.73;67.08
72712;SHT30;60828;40.292;17.998;2022-11-15T13:18:38;20.75;66.81
72712;SHT30;60828;40.292;17.998;2022-11-15T13:21:18;20.77;67.40
72712;SHT30;60828;40.292;17.998;2022-11-15T13:24:02;20.84;66.69
72712;SHT30;60828;40.292;17.998;2022-11-15T13:26:28;20.89;67.68
72712;SHT30;60828;40.292;17.998;2022-11-15T13:28:53;20.79;66.97
72712;SHT30;60828;40.292;17.998;2022-11-15T13:33:46;20.62;67.49
72712;SHT30;60828;40.292;17.998;2022-11-15T13:36:19;20.49;68.57
72712;SHT30;60828;40.292;17.998;2022-11-15T13:38:55;20.42;67.59
72712;SHT30;60828;40.292;17.998;2022-11-15T13:41:35;20.46;68.37
72712;SHT30;60828;40.292;17.998;2022-11-15T13:44:03;20.35;69.33
72712;SHT30;60828;40.292;17.998;2022-11-15T13:46:30;20.28;67.74
72712;SHT30;60828;40.292;17.998;2022-11-15T13:51:34;20.11;68.16
72712;SHT30;60828;40.292;17.998;2022-11-15T13:54:25;19.98;69.03
72712;SHT30;60828;40.292;17.998;2022-11-15T13:57:05;19.73;70.77
72712;SHT30;60828;40.292;17.998;2022-11-15T13:59:36;19.59;70.61
72712;SHT30;60828;40.292;17.998;2022-11-15T14:02:35;19.55;71.35
72712;SHT30;60828;40.292;17.998;2022-11-15T14:05:15;19.46;70.87
72712;SHT30;60828;40.292;17.998;2022-11-15T14:08:37;19.42;70.75
72712;SHT30;60828;40.292;17.998;2022-11-15T14:10:38;19.33;71.39
72712;SHT30;60828;40.292;17.998;2022-11-15T14:13:11;19.38;70.68
72712;SHT30;60828;40.292;17.998;2022-11-15T14:15:51;19.32;70.27
72712;SHT30;60828;40.292;17.998;2022-11-15T14:18:45;19.19;70.60
72712;SHT30;60828;40.292;17.998;2022-11-15T14:21:11;19.11;71.37
72712;SHT30;60828;40.292;17.998;2022-11-15T14:23:37;19.04;71.50
72712;SHT30;60828;40.292;17.998;2022-11-15T14:26:03;18.97;71.36
72712;SHT30;60828;40.292;17.998;2022-11-15T14:28:31;18.94;71.78
72712;SHT30;60828;40.292;17.998;2022-11-15T14:30:59;18.93;71.59
72712;SHT30;60828;40.292;17.998;2022-11-15T14:33:30;18.86;72.29
72712;SHT30;60828;40.292;17.998;2022-11-15T14:36:01;18.91;72.64
72712;SHT30;60828;40.292;17.998;2022-11-15T14:38:27;18.93;72.41
72712;SHT30;60828;40.292;17.998;2022-11-15T14:40:54;18.87;71.82
72712;SHT30;60828;40.292;17.998;2022-11-15T14:43:21;18.81;72.43
72712;SHT30;60828;40.292;17.998;2022-11-15T14:45:46;18.83;72.00
72712;SHT30;60828;40.292;17.998;2022-11-15T14:48:12;18.57;72.00
72712;SHT30;60828;40.292;17.998;2022-11-15T14:50:38;18.40;72.53
72712;SHT30;60828;40.292;17.998;2022-11-15T14:53:04;18.35;73.05
72712;SHT30;60828;40.292;17.998;2022-11-15T14:55:32;18.26;73.44
72712;SHT30;60828;40.292;17.998;2022-11-15T14:58:00;18.19;73.85
72712;SHT30;60828;40.292;17.998;2022-11-15T15:00:31;18.15;73.76
72712;SHT30;60828;40.292;17.998;2022-11-15T15:02:57;18.16;74.71
72712;SHT30;60828;40.292;17.998;2022-11-15T15:05:26;18.13;74.71
72712;SHT30;60828;40.292;17.998;2022-11-15T15:07:51;18.04;74.21
72712;SHT30;60828;40.292;17.998;2022-11-15T15:10:18;18.04;74.38
72712;SHT30;60828;40.292;17.998;2022-11-15T15:12:44;18.04;74.81
72712;SHT30;60828;40.292;17.998;2022-11-15T15:15:19;17.98;74.68
72712;SHT30;60828;40.292;17.998;2022-11-15T15:17:46;17.94;75.05
72712;SHT30;60828;40.292;17.998;2022-11-15T15:20:12;17.82;75.61
72712;SHT30;60828;40.292;17.998;2022-11-15T15:22:38;17.75;75.39
72712;SHT30;60828;40.292;17.998;2022-11-15T15:27:48;17.49;75.79
72712;SHT30;60828;40.292;17.998;2022-11-15T15:30:13;17.37;76.33
72712;SHT30;60828;40.292;17.998;2022-11-15T15:32:39;17.26;76.54
72712;SHT30;60828;40.292;17.998;2022-11-15T15:35:04;17.23;76.52
72712;SHT30;60828;40.292;17.998;2022-11-15T15:37:31;17.19;76.49
72712;SHT30;60828;40.292;17.998;2022-11-15T15:40:14;17.08;76.78
72712;SHT30;60828;40.292;17.998;2022-11-15T15:42:40;16.92;77.17
72712;SHT30;60828;40.292;17.998;2022-11-15T15:45:05;16.79;77.48
72712;SHT30;60828;40.292;17.998;2022-11-15T15:47:31;16.84;77.52
72712;SHT30;60828;40.292;17.998;2022-11-15T15:49:57;16.87;77.73
72712;SHT30;60828;40.292;17.998;2022-11-15T15:52:22;16.82;78.05
72712;SHT30;60828;40.292;17.998;2022-11-15T15:54:48;16.70;78.53
72712;SHT30;60828;40.292;17.998;2022-11-15T15:57:14;16.79;78.56
72712;SHT30;60828;40.292;17.998;2022-11-15T15:59:40;16.74;78.88
72712;SHT30;60828;40.292;17.998;2022-11-15T16:02:08;16.65;79.36
72712;SHT30;60828;40.292;17.998;2022-11-15T16:04:34;16.58;79.69
72712;SHT30;60828;40.292;17.998;2022-11-15T16:07:00;16.49;80.01
72712;SHT30;60828;40.292;17.998;2022-11-15T16:09:26;16.54;79.92
72712;SHT30;60828;40.292;17.998;2022-11-15T16:12:10;16.41;80.04
72712;SHT30;60828;40.292;17.998;2022-11-15T16:14:36;16.43;79.95
72712;SHT30;60828;40.292;17.998;2022-11-15T16:17:02;16.41;80.00
72712;SHT30;60828;40.292;17.998;2022-11-15T16:19:28;16.40;80.07
72712;SHT30;60828;40.292;17.998;2022-11-15T16:21:53;16.31;80.30
72712;SHT30;60828;40.292;17.998;2022-11-15T16:24:20;16.24;80.57
72712;SHT30;60828;40.292;17.998;2022-11-15T16:26:47;16.23;80.82
72712;SHT30;60828;40.292;17.998;2022-11-15T16:29:13;16.10;81.17
72712;SHT30;60828;40.292;17.998;2022-11-15T16:31:38;16.08;81.37
72712;SHT30;60828;40.292;17.998;2022-11-15T16:34:04;16.12;81.46
72712;SHT30;60828;40.292;17.998;2022-11-15T16:36:33;16.17;81.52
72712;SHT30;60828;40.292;17.998;2022-11-15T16:39:00;16.05;81.64
72712;SHT30;60828;40.292;17.998;2022-11-15T16:41:29;15.99;81.80
72712;SHT30;60828;40.292;17.998;2022-11-15T16:43:54;15.92;81.97
72712;SHT30;60828;40.292;17.998;2022-11-15T16:46:22;15.96;82.03
72712;SHT30;60828;40.292;17.998;2022-11-15T16:48:48;15.93;82.11
72712;SHT30;60828;40.292;17.998;2022-11-15T16:51:14;15.92;82.08
72712;SHT30;60828;40.292;17.998;2022-11-15T16:53:40;15.96;82.05
72712;SHT30;60828;40.292;17.998;2022-11-15T16:58:51;15.74;82.70
72712;SHT30;60828;40.292;17.998;2022-11-15T17:01:22;15.71;82.89
72712;SHT30;60828;40.292;17.998;2022-11-15T17:03:48;15.66;82.77
72712;SHT30;60828;40.292;17.998;2022-11-15T17:06:14;15.58;82.96
72712;SHT30;60828;40.292;17.998;2022-11-15T17:08:40;15.62;82.99
72712;SHT30;60828;40.292;17.998;2022-11-15T17:11:07;15.54;83.04
72712;SHT30;60828;40.292;17.998;2022-11-15T17:13:32;15.48;83.21